Time;durP1;ratioP1;P1;durP2;ratioP2;P2;SDS_P1;SDS_P2;PMS_P1;PMS_P2;Temp;Humidity;BMP_temperature;BMP_pressure;BME280_temperature;BME280_humidity;BME280_pressure;Samples;Min_cycle;Max_cycle;Signal;HPM_P1;HPM_P2
2022/05/30 00:02:10;;;;;;;4.13;1.27;;;;;;;9.25;78.12;101277.97;5004879;28;20068;-70
2022/05/30 00:04:38;;;;;;;5.72;1.50;;;;;;;9.17;78.04;101284.72;5009118;28;20044;-68
2022/05/30 00:07:06;;;;;;;6.07;1.55;;;;;;;9.12;77.23;101278.69;5009771;28;20531;-69
2022/05/30 00:09:31;;;;;;;3.30;1.02;;;;;;;9.14;78.22;101268.63;5000169;28;20479;-69
2022/05/30 00:11:57;;;;;;;5.22;1.70;;;;;;;9.12;77.80;101270.53;5005901;28;20260;-68
2022/05/30 00:14:22;;;;;;;5.47;1.40;;;;;;;9.10;77.50;101275.19;4991011;28;20085;-69
2022/05/30 00:16:48;;;;;;;4.57;1.50;;;;;;;9.03;78.74;101279.22;5009244;28;20570;-69
2022/05/30 00:19:13;;;;;;;3.78;1.38;;;;;;;9.01;78.01;101270.31;5009418;28;20093;-69
2022/05/30 00:21:38;;;;;;;5.88;1.45;;;;;;;8.99;79.10;101271.34;5009561;28;20073;-69
2022/05/30 00:24:04;;;;;;;6.22;1.55;;;;;;;8.97;77.68;101271.47;5004176;28;20438;-70
2022/05/30 00:26:29;;;;;;;3.88;1.60;;;;;;;8.91;77.75;101274.53;5009404;28;20036;-69
2022/05/30 00:28:55;;;;;;;6.68;1.73;;;;;;;8.88;78.53;101270.16;4985853;28;20095;-70
2022/05/30 00:31:21;;;;;;;4.65;1.38;;;;;;;8.84;77.83;101274.00;4998153;28;20069;-69
2022/05/30 00:33:48;;;;;;;7.90;1.50;;;;;;;8.79;78.70;101267.97;5008722;28;20088;-69
2022/05/30 00:36:14;;;;;;;5.60;1.42;;;;;;;8.76;78.26;101270.00;4992151;28;20060;-68
2022/05/30 00:38:39;;;;;;;8.98;1.77;;;;;;;8.73;78.50;101267.47;5000946;28;20038;-70
2022/05/30 00:41:06;;;;;;;4.05;1.58;;;;;;;8.70;78.59;101263.09;4990559;28;20144;-70
2022/05/30 00:43:37;;;;;;;6.78;1.45;;;;;;;8.64;79.20;101266.16;4998575;28;20088;-70
2022/05/30 00:46:12;;;;;;;4.70;1.60;;;;;;;8.56;79.89;101265.72;4988572;28;20056;-69
2022/05/30 00:49:00;;;;;;;9.07;1.45;;;;;;;8.51;78.62;101265.13;4990848;28;20049;-69
2022/05/30 00:51:50;;;;;;;3.95;2.00;;;;;;;8.49;78.46;101264.34;5009075;28;20426;-70
2022/05/30 00:54:22;;;;;;;5.82;1.45;;;;;;;8.48;78.70;101259.84;5004023;28;20146;-67
2022/05/30 00:56:53;;;;;;;5.65;1.80;;;;;;;8.50;78.98;101257.94;4991154;28;20052;-68
2022/05/30 00:59:18;;;;;;;11.70;1.90;;;;;;;8.49;78.51;101257.06;4984775;28;20300;-68
2022/05/30 01:01:43;;;;;;;6.68;1.65;;;;;;;8.50;79.31;101257.94;4975147;28;20151;-69
2022/05/30 01:06:57;;;;;;;7.63;2.10;;;;;;;8.56;79.15;101247.63;4996992;28;20080;-69
2022/05/30 01:09:26;;;;;;;7.47;1.67;;;;;;;8.63;79.05;101246.31;5008724;28;20057;-69
2022/05/30 01:11:58;;;;;;;6.88;1.73;;;;;;;8.68;78.72;101249.63;4990104;28;20034;-69
2022/05/30 01:14:27;;;;;;;6.75;2.45;;;;;;;8.69;79.06;101250.50;4985399;28;20041;-69
2022/05/30 01:16:53;;;;;;;4.63;1.90;;;;;;;8.67;79.95;101249.69;4990255;28;20059;-69
2022/05/30 01:19:55;;;;;;;4.97;1.42;;;;;;;8.68;79.42;101255.06;4990085;28;20405;-68
2022/05/30 01:22:36;;;;;;;4.30;1.50;;;;;;;8.61;80.10;101248.22;4990072;28;20472;-69
2022/05/30 01:25:14;;;;;;;5.97;1.30;;;;;;;8.60;81.02;101260.03;4990477;28;20034;-69
2022/05/30 01:28:26;;;;;;;3.47;1.15;;;;;;;8.59;79.67;101257.44;4985657;28;20054;-70
2022/05/30 01:30:53;;;;;;;4.93;2.00;;;;;;;8.57;79.82;101249.34;4987790;28;20038;-70
2022/05/30 01:33:19;;;;;;;5.47;2.45;;;;;;;8.57;79.88;101249.34;4987588;28;20085;-70
2022/05/30 01:35:44;;;;;;;2.88;1.52;;;;;;;8.56;79.66;101247.63;4991151;28;20068;-69
2022/05/30 01:38:14;;;;;;;3.92;1.58;;;;;;;8.55;80.02;101237.75;4990298;28;20029;-69
2022/05/30 01:40:40;;;;;;;8.18;1.65;;;;;;;8.52;80.02;101235.19;4989923;28;20342;-69
2022/05/30 01:43:06;;;;;;;3.33;1.67;;;;;;;8.51;79.68;101235.28;4983547;28;20045;-68
2022/05/30 01:45:33;;;;;;;4.70;1.60;;;;;;;8.50;79.79;101231.72;4988536;28;20026;-68
2022/05/30 01:47:59;;;;;;;5.60;2.03;;;;;;;8.49;79.47;101239.94;4990263;28;20034;-69
2022/05/30 01:50:28;;;;;;;4.25;1.50;;;;;;;8.45;80.93;101233.81;5006956;28;20042;-69
2022/05/30 01:52:53;;;;;;;4.10;1.45;;;;;;;8.42;80.28;101240.28;4999013;28;20678;-69
2022/05/30 01:55:34;;;;;;;3.60;1.50;;;;;;;8.40;80.16;101236.78;4972917;28;20026;-69
2022/05/30 01:58:05;;;;;;;6.13;1.70;;;;;;;8.34;81.30;101237.06;4984440;28;20042;-68
2022/05/30 02:00:33;;;;;;;2.80;2.00;;;;;;;8.31;80.43;101234.56;4990369;28;20058;-69
2022/05/30 02:02:59;;;;;;;8.85;1.90;;;;;;;8.27;80.40;101230.28;4989868;28;20022;-69
2022/05/30 02:05:25;;;;;;;4.40;1.55;;;;;;;8.25;81.24;101224.03;4989203;28;20440;-69
2022/05/30 02:07:51;;;;;;;7.10;1.65;;;;;;;8.25;80.94;101226.75;4998780;28;20030;-68
2022/05/30 02:10:23;;;;;;;6.97;1.55;;;;;;;8.24;80.33;101226.84;4990011;28;20042;-69
2022/05/30 02:12:50;;;;;;;9.00;2.20;;;;;;;8.23;80.54;101228.69;4986318;28;20417;-69
2022/05/30 02:15:23;;;;;;;;;;;;;;;8.28;78.81;101226.59;4979666;28;20460;-69
2022/05/30 02:17:53;;;;;;;6.97;2.15;;;;;;;8.22;80.85;101224.25;4987187;28;19936;-69
2022/05/30 02:20:19;;;;;;;7.63;1.60;;;;;;;8.21;80.60;101224.31;4996399;28;20117;-69
2022/05/30 02:22:45;;;;;;;6.43;1.95;;;;;;;8.16;80.77;101230.88;4973976;28;20052;-69
2022/05/30 02:25:12;;;;;;;4.45;2.22;;;;;;;8.15;81.27;101225.53;4988999;28;20026;-68
2022/05/30 02:27:38;;;;;;;9.00;3.22;;;;;;;8.16;80.74;101230.88;4988036;28;20065;-68
2022/05/30 02:30:05;;;;;;;3.13;1.70;;;;;;;8.14;80.86;101230.09;4986741;28;20018;-70
2022/05/30 02:32:30;;;;;;;7.13;2.28;;;;;;;8.14;81.07;101227.38;4999011;28;20474;-69
2022/05/30 02:37:40;;;;;;;8.20;2.58;;;;;;;8.12;80.96;101223.03;4988354;28;20397;-69
2022/05/30 02:40:25;;;;;;;6.72;2.53;;;;;;;8.09;80.86;101223.19;4999901;28;20046;-68
2022/05/30 02:43:10;;;;;;;9.73;2.28;;;;;;;8.06;81.67;101216.09;4979000;28;20022;-69
2022/05/30 02:45:40;;;;;;;6.47;1.95;;;;;;;8.05;81.61;101219.75;4983619;28;20034;-69
2022/05/30 02:48:06;;;;;;;6.20;2.55;;;;;;;8.03;82.06;101220.81;4988170;28;20037;-68
2022/05/30 02:50:31;;;;;;;4.43;2.50;;;;;;;8.02;81.58;101214.53;4983871;28;20034;-70
2022/05/30 02:52:57;;;;;;;3.58;2.03;;;;;;;8.01;81.21;101215.47;4972196;28;20033;-69
2022/05/30 02:55:42;;;;;;;4.20;2.00;;;;;;;8.02;81.41;101211.81;5007070;28;20049;-69
2022/05/30 02:58:08;;;;;;;9.05;1.92;;;;;;;7.98;81.84;101215.66;4981692;28;20050;-68
2022/05/30 03:00:33;;;;;;;5.95;2.90;;;;;;;7.97;81.60;101218.44;4985187;28;20036;-68
2022/05/30 03:03:02;;;;;;;4.50;2.20;;;;;;;7.95;82.11;101215.81;4990768;28;20037;-69
2022/05/30 03:05:27;;;;;;;5.75;2.40;;;;;;;7.93;81.61;101220.47;4980101;28;20432;-68
2022/05/30 03:07:52;;;;;;;10.00;2.65;;;;;;;7.90;82.21;101229.63;5005974;28;20040;-69
2022/05/30 03:10:50;;;;;;;4.60;1.90;;;;;;;7.91;81.71;101220.53;4951069;28;20161;-69
2022/05/30 03:13:16;;;;;;;6.78;2.30;;;;;;;7.91;82.39;101227.78;4982999;28;20550;-69
2022/05/30 03:15:42;;;;;;;8.85;2.22;;;;;;;7.91;82.09;101223.22;4999740;28;20025;-69
2022/05/30 03:18:08;;;;;;;5.00;2.30;;;;;;;7.92;82.40;101222.28;4972276;28;20026;-68
2022/05/30 03:20:34;;;;;;;7.35;2.60;;;;;;;7.97;81.91;101234.69;4984440;28;20525;-69
2022/05/30 03:23:01;;;;;;;5.63;2.83;;;;;;;7.95;82.26;101226.66;4986329;28;20041;-69
2022/05/30 03:25:53;;;;;;;6.60;2.60;;;;;;;7.90;83.42;101237.75;4988899;28;20061;-69
2022/05/30 03:28:19;;;;;;;10.20;4.03;;;;;;;7.85;83.45;101234.41;4982127;28;20509;-69
2022/05/30 03:30:44;;;;;;;5.97;3.47;;;;;;;7.79;83.86;101228.47;4997649;28;20090;-69
2022/05/30 03:33:10;;;;;;;5.25;2.85;;;;;;;7.80;83.29;101231.09;4988082;28;20045;-69
2022/05/30 03:35:37;;;;;;;11.93;3.67;;;;;;;7.82;83.42;101234.56;4988760;28;20621;-70
2022/05/30 03:38:40;;;;;;;5.05;2.92;;;;;;;7.86;82.65;101240.72;4992985;28;20404;-69
2022/05/30 03:41:28;;;;;;;7.03;3.53;;;;;;;7.88;83.01;101239.69;5006193;28;20137;-69
2022/05/30 03:44:03;;;;;;;11.95;3.95;;;;;;;7.89;82.52;101244.13;4981449;28;20084;-70
2022/05/30 03:46:30;;;;;;;10.43;4.45;;;;;;;7.91;82.89;101246.75;4982896;28;20065;-69
2022/05/30 03:48:56;;;;;;;10.20;4.07;;;;;;;7.90;83.20;101243.16;4971930;28;20034;-69
2022/05/30 03:51:21;;;;;;;10.63;4.22;;;;;;;7.93;83.28;101245.72;4999717;28;20026;-69
2022/05/30 03:53:47;;;;;;;8.95;4.10;;;;;;;7.93;83.17;101245.72;4988805;28;20414;-69
2022/05/30 03:56:13;;;;;;;8.98;4.10;;;;;;;7.96;83.16;101241.94;4989012;28;20067;-69
2022/05/30 03:58:39;;;;;;;9.15;4.20;;;;;;;7.97;83.02;101240.09;4989468;28;20058;-69
2022/05/30 04:01:06;;;;;;;7.60;4.57;;;;;;;7.97;82.97;101237.41;4986569;28;20030;-69
2022/05/30 04:03:33;;;;;;;12.93;4.53;;;;;;;7.97;83.78;101243.69;4987672;28;20049;-69
2022/05/30 04:05:59;;;;;;;9.48;4.50;;;;;;;7.99;83.12;101241.78;5000866;28;20523;-69
2022/05/30 04:08:25;;;;;;;7.15;4.25;;;;;;;8.04;83.26;101241.53;4988175;28;20040;-69
2022/05/30 04:11:09;;;;;;;14.45;4.55;;;;;;;8.12;82.66;101236.56;5003995;28;20121;-68
2022/05/30 04:14:13;;;;;;;10.43;4.75;;;;;;;8.19;83.22;101237.97;4989377;28;20053;-69
2022/05/30 04:16:43;;;;;;;13.13;4.03;;;;;;;8.22;83.02;101232.38;4972837;28;20041;-68
2022/05/30 04:19:11;;;;;;;10.75;4.45;;;;;;;8.25;83.53;101237.59;5007822;28;20434;-68
2022/05/30 04:21:37;;;;;;;12.63;4.68;;;;;;;8.29;82.97;101236.47;4990131;28;20108;-69
2022/05/30 04:24:04;;;;;;;14.52;4.75;;;;;;;8.31;82.61;101237.28;4984134;28;20056;-69
2022/05/30 04:26:37;;;;;;;10.15;4.47;;;;;;;8.36;82.59;101237.00;4991378;28;20038;-68
2022/05/30 04:29:03;;;;;;;10.15;4.07;;;;;;;8.38;82.82;101240.53;4984457;28;20474;-69
2022/05/30 04:31:49;;;;;;;10.15;4.65;;;;;;;8.38;82.39;101243.25;4984605;28;20045;-69
2022/05/30 04:34:15;;;;;;;7.90;4.63;;;;;;;8.35;82.63;101241.56;4991620;28;20178;-68
2022/05/30 04:36:41;;;;;;;9.15;3.72;;;;;;;8.33;82.92;101238.03;4992099;28;20033;-69
2022/05/30 04:39:06;;;;;;;11.70;5.03;;;;;;;8.31;81.71;101239.13;4990537;28;20116;-69
2022/05/30 04:41:52;;;;;;;13.48;4.60;;;;;;;8.26;82.41;101235.78;4983525;28;20034;-69
2022/05/30 04:44:36;;;;;;;7.72;5.22;;;;;;;8.22;82.05;101245.06;4992031;28;20065;-68
2022/05/30 04:47:21;;;;;;;9.50;4.10;;;;;;;8.22;81.88;101248.63;4983646;28;20038;-69
2022/05/30 04:49:48;;;;;;;10.20;4.38;;;;;;;8.25;81.54;101253.00;4986754;28;20035;-68
2022/05/30 04:52:15;;;;;;;12.68;4.78;;;;;;;8.30;82.12;101249.09;4984098;28;20040;-69
2022/05/30 04:54:41;;;;;;;12.48;4.80;;;;;;;8.36;82.07;101251.47;4988204;28;20196;-69
2022/05/30 04:57:17;;;;;;;11.25;4.45;;;;;;;8.44;82.50;101253.75;4988528;28;20060;-68
2022/05/30 04:59:54;;;;;;;7.10;4.05;;;;;;;8.53;82.89;101249.63;4983590;28;20061;-69
2022/05/30 05:02:20;;;;;;;7.68;4.57;;;;;;;8.60;83.05;101249.19;4974988;28;20026;-68
2022/05/30 05:04:45;;;;;;;12.80;5.43;;;;;;;8.69;83.27;101247.78;4990673;28;20030;-68
2022/05/30 05:07:10;;;;;;;11.50;4.82;;;;;;;8.78;82.71;101249.97;5007251;28;20033;-68
2022/05/30 05:09:52;;;;;;;13.15;5.20;;;;;;;8.85;82.00;101248.63;4990877;28;20036;-67
2022/05/30 05:12:46;;;;;;;;;;;;;;;9.01;80.63;101251.31;5006182;28;20395;-67
2022/05/30 05:15:30;;;;;;;14.48;4.50;;;;;;;9.14;80.32;101255.06;5000459;28;19967;-69
2022/05/30 05:18:22;;;;;;;7.43;5.10;;;;;;;9.32;80.17;101257.59;4988038;28;20117;-69
2022/05/30 05:20:47;;;;;;;13.20;6.10;;;;;;;9.40;79.22;101255.31;4986736;28;20092;-69
2022/05/30 05:23:12;;;;;;;10.48;4.68;;;;;;;9.52;79.97;101257.28;4990466;28;20029;-69
2022/05/30 05:26:06;;;;;;;6.97;4.60;;;;;;;9.65;78.84;101263.72;4988181;28;20095;-68
2022/05/30 05:28:37;;;;;;;11.13;4.82;;;;;;;9.75;78.86;101258.56;4997023;28;20089;-71
2022/05/30 05:31:02;;;;;;;13.52;5.10;;;;;;;9.82;78.36;101264.50;4987499;28;20026;-69
2022/05/30 05:33:28;;;;;;;10.73;4.90;;;;;;;9.84;77.95;101266.16;4989713;28;20814;-68
2022/05/30 05:35:53;;;;;;;14.25;5.15;;;;;;;9.83;77.98;101261.66;5007847;28;20068;-67
2022/05/30 05:38:19;;;;;;;13.50;4.25;;;;;;;9.82;77.74;101261.78;4987215;28;20084;-69
2022/05/30 05:41:08;;;;;;;13.85;5.50;;;;;;;9.79;77.79;101265.56;5005611;28;20111;-69
2022/05/30 05:43:54;;;;;;;12.63;4.82;;;;;;;9.78;77.57;101265.66;4979542;28;20503;-68
2022/05/30 05:46:22;;;;;;;7.75;4.50;;;;;;;9.75;78.05;101265.84;4985183;28;20037;-68
2022/05/30 05:48:49;;;;;;;12.10;4.20;;;;;;;9.71;76.93;101263.31;4985316;28;20096;-68
2022/05/30 05:51:14;;;;;;;8.68;3.83;;;;;;;9.70;77.15;101269.72;4988855;28;20445;-69
2022/05/30 05:53:41;;;;;;;11.70;4.05;;;;;;;9.76;76.62;101267.59;4988225;28;20105;-69
2022/05/30 05:56:19;;;;;;;8.40;3.80;;;;;;;9.85;76.28;101273.34;4988825;28;20072;-69
2022/05/30 05:58:44;;;;;;;7.30;3.42;;;;;;;9.86;76.41;101272.34;5001523;28;20565;-70
2022/05/30 06:01:12;;;;;;;10.57;3.67;;;;;;;9.85;76.18;101277.91;4987682;28;20120;-69
2022/05/30 06:03:37;;;;;;;8.77;3.28;;;;;;;9.89;76.92;101284.91;4987033;28;20022;-68
2022/05/30 06:06:28;;;;;;;17.45;3.67;;;;;;;9.89;76.41;101280.31;5007144;28;20145;-69
2022/05/30 06:09:01;;;;;;;9.73;3.30;;;;;;;9.83;76.32;101282.53;4989350;28;20080;-69
2022/05/30 06:11:43;;;;;;;6.57;2.70;;;;;;;9.70;74.91;101277.00;5000704;28;20030;-69
2022/05/30 06:14:08;;;;;;;9.18;2.88;;;;;;;9.73;75.93;101278.66;4978345;28;20034;-70
2022/05/30 06:16:37;;;;;;;5.40;2.65;;;;;;;9.78;75.49;101282.81;5005179;28;20034;-69
2022/05/30 06:19:04;;;;;;;8.00;2.83;;;;;;;9.79;76.34;101284.59;4986117;28;20038;-70
2022/05/30 06:21:31;;;;;;;5.65;2.25;;;;;;;9.81;75.83;101285.34;4970616;28;20065;-68
2022/05/30 06:23:59;;;;;;;7.35;2.53;;;;;;;9.81;76.68;101281.78;4983942;28;20470;-70
2022/05/30 06:26:44;;;;;;;8.90;2.58;;;;;;;9.83;75.40;101282.53;5004881;28;20048;-69
2022/05/30 06:29:25;;;;;;;7.13;2.15;;;;;;;9.86;75.65;101285.94;4994314;28;20341;-69
2022/05/30 06:31:50;;;;;;;5.18;2.20;;;;;;;9.89;75.21;101287.59;5002671;28;20518;-69
2022/05/30 06:34:16;;;;;;;8.25;2.17;;;;;;;9.94;74.02;101286.34;5002565;28;20041;-68
2022/05/30 06:36:44;;;;;;;7.57;2.30;;;;;;;9.90;72.28;101286.63;4985845;28;20121;-69
2022/05/30 06:39:10;;;;;;;7.25;1.88;;;;;;;9.87;73.41;101284.09;4982563;28;20030;-69
2022/05/30 06:41:59;;;;;;;4.35;1.90;;;;;;;9.90;71.89;101286.63;4996456;28;20052;-69
2022/05/30 06:44:25;;;;;;;5.07;1.90;;;;;;;9.89;71.57;101283.03;4982719;28;20132;-69
2022/05/30 06:47:09;;;;;;;4.93;1.90;;;;;;;9.91;70.19;101288.38;5006746;28;20052;-69
2022/05/30 06:49:53;;;;;;;9.18;2.42;;;;;;;9.94;69.88;101289.06;5003678;28;20116;-69
2022/05/30 06:52:23;;;;;;;6.93;1.88;;;;;;;9.96;69.92;101291.69;4988734;28;20397;-69
2022/05/30 06:54:48;;;;;;;4.68;1.75;;;;;;;10.00;70.73;101274.22;4988843;28;20038;-69
2022/05/30 06:59:59;;;;;;;7.22;1.40;;;;;;;10.28;67.09;101286.94;4976030;28;20438;-68
2022/05/30 07:02:24;;;;;;;5.75;1.45;;;;;;;10.39;65.61;101294.41;4998529;28;20037;-68
2022/05/30 07:05:13;;;;;;;4.25;1.20;;;;;;;10.62;67.29;101303.78;5003700;28;20076;-69
2022/05/30 07:08:08;;;;;;;4.03;1.60;;;;;;;10.78;64.94;101290.94;4919324;28;20050;-68
2022/05/30 07:10:52;;;;;;;3.60;1.50;;;;;;;11.04;67.37;101297.34;4991208;28;20559;-69
2022/05/30 07:13:20;;;;;;;2.10;1.42;;;;;;;11.32;67.72;101295.50;4985460;28;20056;-68
2022/05/30 07:15:48;;;;;;;3.70;1.50;;;;;;;11.49;64.32;101292.47;4999425;28;20037;-67
2022/05/30 07:18:19;;;;;;;4.72;1.25;;;;;;;11.81;65.99;101294.81;4982406;28;20481;-67
2022/05/30 07:20:47;;;;;;;6.32;1.13;;;;;;;12.09;61.82;101293.75;4988515;28;20117;-68
2022/05/30 07:23:25;;;;;;;3.30;1.10;;;;;;;12.18;62.84;101298.56;5000054;28;20042;-69
2022/05/30 07:26:16;;;;;;;4.07;0.98;;;;;;;12.23;64.08;101299.97;4998315;28;20061;-69
2022/05/30 07:29:00;;;;;;;2.53;1.10;;;;;;;12.41;63.20;101297.78;4993437;28;20073;-68
2022/05/30 07:31:44;;;;;;;7.53;1.65;;;;;;;12.64;61.83;101296.09;5006104;28;20045;-69
2022/05/30 07:34:29;;;;;;;2.53;1.05;;;;;;;12.88;64.32;101287.91;4998721;28;20080;-68
2022/05/30 07:37:27;;;;;;;7.53;1.08;;;;;;;13.13;60.41;101292.38;4998982;28;20046;-69
2022/05/30 07:40:15;;;;;;;1.70;0.80;;;;;;;13.09;60.20;101295.47;4993708;28;20065;-67
2022/05/30 07:42:48;;;;;;;3.28;0.98;;;;;;;13.13;59.45;101286.06;5000604;28;20042;-67
2022/05/30 07:45:31;;;;;;;4.43;1.17;;;;;;;13.18;58.03;101294.75;5000179;28;20053;-69
2022/05/30 07:48:23;;;;;;;3.97;1.00;;;;;;;12.93;56.17;101282.09;4976682;28;20065;-68
2022/05/30 07:51:01;;;;;;;5.38;1.15;;;;;;;13.13;60.17;101288.78;4986808;28;20037;-68
2022/05/30 07:53:46;;;;;;;4.25;1.30;;;;;;;13.13;54.27;101289.66;4990022;28;20156;-67
2022/05/30 07:56:26;;;;;;;2.63;1.33;;;;;;;13.23;57.12;101285.25;4976570;28;20042;-68
2022/05/30 07:58:53;;;;;;;4.95;1.10;;;;;;;13.34;59.30;101287.19;4982763;28;20497;-68
2022/05/30 08:01:20;;;;;;;4.72;1.70;;;;;;;13.62;59.93;101293.25;4990922;28;20053;-68
2022/05/30 08:03:50;;;;;;;7.45;1.60;;;;;;;13.87;58.38;101283.97;4988689;28;20061;-68
2022/05/30 08:06:42;;;;;;;4.15;1.20;;;;;;;13.83;54.12;101286.06;4971724;28;20346;-68
2022/05/30 08:09:25;;;;;;;4.53;1.20;;;;;;;13.87;57.39;101278.50;5007427;28;20218;-69
2022/05/30 08:12:06;;;;;;;3.85;1.23;;;;;;;14.21;57.98;101285.72;4989512;28;20080;-68
2022/05/30 08:15:00;;;;;;;5.35;1.55;;;;;;;14.43;56.36;101290.34;5001385;28;20115;-67
2022/05/30 08:17:45;;;;;;;3.47;1.00;;;;;;;14.15;53.92;101291.72;4991929;28;20041;-67
2022/05/30 08:20:14;;;;;;;5.90;2.03;;;;;;;14.01;53.94;101289.22;4990845;28;20034;-69
2022/05/30 08:22:40;;;;;;;2.42;1.08;;;;;;;14.09;52.87;101286.75;5003063;28;20037;-68
2022/05/30 08:25:14;;;;;;;4.88;1.08;;;;;;;14.30;53.97;101289.59;4980024;28;20041;-68
2022/05/30 08:27:41;;;;;;;2.50;1.20;;;;;;;14.42;55.32;101291.34;4987974;28;20046;-69
2022/05/30 08:30:07;;;;;;;1.77;1.13;;;;;;;14.59;55.79;101292.72;4982141;28;20129;-68
2022/05/30 08:32:38;;;;;;;4.68;1.85;;;;;;;14.59;52.42;101291.84;4999922;28;20034;-68
2022/05/30 08:35:05;;;;;;;2.67;1.15;;;;;;;14.66;55.23;101293.97;4999457;28;20076;-69
2022/05/30 08:37:37;;;;;;;7.63;1.27;;;;;;;14.74;56.26;101286.00;5002891;28;20018;-68
2022/05/30 08:42:55;;;;;;;5.80;1.50;;;;;;;14.85;52.81;101293.31;4983213;28;20038;-68
2022/05/30 08:45:33;;;;;;;4.35;1.67;;;;;;;15.03;54.30;101296.38;4985845;28;20117;-68
2022/05/30 08:48:37;;;;;;;7.72;1.50;;;;;;;15.10;55.79;101305.81;4978087;28;20041;-69
2022/05/30 08:51:19;;;;;;;7.32;1.75;;;;;;;14.84;50.71;101307.16;4973463;28;20034;-68
2022/05/30 08:53:52;;;;;;;6.20;1.88;;;;;;;14.64;53.95;101306.94;4986962;28;20170;-68
2022/05/30 08:56:33;;;;;;;4.57;1.52;;;;;;;14.69;51.99;101295.59;4986918;28;20042;-68
2022/05/30 08:59:31;;;;;;;8.20;1.40;;;;;;;14.76;53.29;101299.56;4993681;28;20061;-68
2022/05/30 09:02:05;;;;;;;4.25;1.50;;;;;;;15.02;53.40;101301.00;4980218;28;20034;-68
2022/05/30 09:04:43;;;;;;;4.75;1.38;;;;;;;15.04;53.84;101306.34;4996730;28;20118;-69
2022/05/30 09:07:14;;;;;;;5.75;1.67;;;;;;;15.50;56.92;101306.06;4990967;28;20085;-69
2022/05/30 09:09:40;;;;;;;5.18;1.20;;;;;;;15.87;53.11;101313.00;4997389;28;20030;-68
2022/05/30 09:12:22;;;;;;;6.65;1.60;;;;;;;16.11;52.98;101302.59;4982718;28;20517;-69
2022/05/30 09:15:26;;;;;;;6.63;1.83;;;;;;;16.31;51.26;101306.31;4995341;28;20100;-69
2022/05/30 09:18:20;;;;;;;2.90;1.15;;;;;;;16.61;50.73;101305.44;4990853;28;20122;-68
2022/05/30 09:20:46;;;;;;;1.77;0.98;;;;;;;16.85;45.60;101299.63;4990473;28;20078;-69
2022/05/30 09:23:24;;;;;;;2.97;1.10;;;;;;;17.12;46.47;101298.97;4990432;28;20053;-69
2022/05/30 09:25:55;;;;;;;4.07;1.13;;;;;;;17.50;45.39;101291.75;5008676;28;20026;-68
2022/05/30 09:28:46;;;;;;;3.60;1.00;;;;;;;18.44;48.31;101295.47;4986697;28;20131;-68
2022/05/30 09:31:36;;;;;;;2.05;1.05;;;;;;;19.08;46.41;101288.22;5005030;28;20106;-68
2022/05/30 09:34:32;;;;;;;6.18;1.10;;;;;;;19.46;46.44;101294.47;5007088;28;20049;-69
2022/05/30 09:37:45;;;;;;;2.20;1.10;;;;;;;19.73;45.25;101288.88;4976214;28;20073;-69
2022/05/30 09:40:42;;;;;;;5.47;1.00;;;;;;;20.15;45.84;101292.81;5002499;28;20053;-70
2022/05/30 09:43:45;;;;;;;4.05;1.35;;;;;;;20.69;46.22;101290.69;4983510;28;20057;-68
2022/05/30 09:46:19;;;;;;;4.72;1.13;;;;;;;21.01;41.25;101287.19;4982370;28;20470;-68
2022/05/30 09:49:10;;;;;;;1.85;0.82;;;;;;;21.58;42.02;101281.78;4991863;28;20061;-68
2022/05/30 09:51:41;;;;;;;5.22;0.80;;;;;;;21.51;38.14;101287.16;4986772;28;20026;-68
2022/05/30 09:54:34;;;;;;;2.35;1.27;;;;;;;21.88;43.03;101285.78;4990401;28;20120;-69
2022/05/30 09:57:10;;;;;;;6.03;1.10;;;;;;;22.23;41.93;101284.53;4986391;28;20524;-68
2022/05/30 09:59:57;;;;;;;4.45;1.05;;;;;;;22.56;36.66;101287.22;4988914;28;20197;-69
2022/05/30 10:02:31;;;;;;;3.15;0.85;;;;;;;22.96;38.79;101285.34;4989789;28;20037;-68
2022/05/30 10:05:21;;;;;;;;;;;;;;;23.40;40.06;101282.81;4989359;28;20034;-68
2022/05/30 10:08:03;;;;;;;3.15;0.88;;;;;;;22.86;40.67;101293.88;4996447;28;20517;-68
2022/05/30 10:10:51;;;;;;;2.70;1.38;;;;;;;22.45;38.68;101284.84;4989985;28;20038;-69
2022/05/30 10:13:34;;;;;;;1.90;0.85;;;;;;;21.55;38.60;101290.47;4984734;28;20121;-69
2022/05/30 10:16:12;;;;;;;4.78;1.10;;;;;;;20.80;40.08;101290.44;5004243;28;20152;-68
2022/05/30 10:18:52;;;;;;;1.48;0.90;;;;;;;20.30;41.16;101293.94;5004765;28;20073;-68
2022/05/30 10:28:14;;;;;;;2.70;0.80;;;;;;;19.84;40.07;101296.88;4989541;28;20026;-69
2022/05/30 10:28:32;;;;;;;5.75;1.00;;;;;;;19.15;43.48;101297.59;4984496;28;20741;-68
2022/05/30 10:31:43;;;;;;;3.13;1.08;;;;;;;18.81;44.98;101301.00;4997210;28;20072;-67
2022/05/30 10:34:43;;;;;;;2.35;1.10;;;;;;;18.51;44.41;101293.88;4987833;28;20069;-69
2022/05/30 10:37:24;;;;;;;1.83;1.20;;;;;;;18.30;45.40;101299.59;4985101;28;20445;-69
2022/05/30 10:40:23;;;;;;;2.45;1.08;;;;;;;18.10;45.51;101303.44;4984410;28;20532;-69
2022/05/30 10:42:58;;;;;;;3.83;1.20;;;;;;;18.22;44.67;101293.97;4990704;28;20053;-68
2022/05/30 10:45:47;;;;;;;2.90;1.05;;;;;;;18.54;45.57;101301.81;4986546;28;20116;-69
2022/05/30 10:48:36;;;;;;;2.17;0.98;;;;;;;19.17;45.95;101306.59;5006260;28;20468;-69
2022/05/30 10:51:22;;;;;;;3.58;1.00;;;;;;;19.97;44.70;101310.28;4988434;28;20034;-68
2022/05/30 10:53:55;;;;;;;5.47;1.15;;;;;;;20.29;41.34;101312.41;4988016;28;20583;-68
2022/05/30 10:56:40;;;;;;;6.15;1.20;;;;;;;20.89;43.83;101306.03;4986298;28;20400;-68
2022/05/30 10:59:25;;;;;;;2.83;1.30;;;;;;;21.34;41.68;101302.88;4992962;28;20113;-68
2022/05/30 11:01:53;;;;;;;4.70;1.00;;;;;;;21.22;38.03;101311.66;4986613;28;20037;-69
2022/05/30 11:04:45;;;;;;;3.05;0.90;;;;;;;20.85;39.30;101299.09;4980293;28;20056;-70
2022/05/30 11:07:20;;;;;;;4.65;1.23;;;;;;;20.62;40.17;101296.91;4989110;28;20040;-69
2022/05/30 11:09:56;;;;;;;2.30;0.93;;;;;;;20.42;40.21;101291.75;4987288;28;20052;-67
2022/05/30 11:12:34;;;;;;;2.75;1.25;;;;;;;20.20;39.79;101304.25;4974049;28;20038;-69
2022/05/30 11:15:21;;;;;;;2.75;1.05;;;;;;;19.92;39.04;101300.75;4978683;28;20090;-69
2022/05/30 11:17:59;;;;;;;3.60;1.05;;;;;;;19.65;41.02;101308.13;4991088;28;20050;-68
2022/05/30 11:21:07;;;;;;;2.05;0.98;;;;;;;19.34;40.18;101302.09;4993024;28;20488;-69
2022/05/30 11:23:34;;;;;;;1.80;0.88;;;;;;;19.06;40.85;101298.53;4981610;28;20030;-68
2022/05/30 11:26:18;;;;;;;2.85;1.00;;;;;;;18.82;42.91;101308.25;5005783;28;20129;-68
2022/05/30 11:29:12;;;;;;;5.75;1.17;;;;;;;18.64;43.17;101304.53;4986560;28;20436;-69
2022/05/30 11:31:53;;;;;;;3.63;1.05;;;;;;;18.42;41.94;101300.28;5005100;28;20037;-68
2022/05/30 11:34:32;;;;;;;4.75;1.00;;;;;;;18.41;44.83;101298.53;4993912;28;20494;-69
2022/05/30 11:37:30;;;;;;;4.20;1.00;;;;;;;18.53;44.27;101305.59;4997004;28;20100;-69
2022/05/30 11:40:12;;;;;;;2.50;1.10;;;;;;;18.41;42.45;101305.94;5005880;28;20072;-69
2022/05/30 11:42:50;;;;;;;;;;;;;;;18.62;45.14;101303.81;5008739;28;20034;-69
2022/05/30 11:45:31;;;;;;;2.67;1.00;;;;;;;18.38;44.19;101309.00;4993760;28;19925;-67
2022/05/30 11:48:07;;;;;;;4.25;1.30;;;;;;;18.57;44.31;101314.44;5009522;28;20488;-69
2022/05/30 11:51:15;;;;;;;3.70;1.30;;;;;;;18.63;42.87;101304.69;4980672;28;20444;-68
2022/05/30 11:53:58;;;;;;;4.53;1.25;;;;;;;18.42;43.78;101307.66;5005231;28;20037;-69
2022/05/30 11:56:40;;;;;;;2.00;1.08;;;;;;;18.65;43.24;101306.25;4999117;28;20438;-68
2022/05/30 11:59:43;;;;;;;4.10;0.90;;;;;;;18.81;42.85;101298.25;4994320;28;20427;-69
2022/05/30 12:02:17;;;;;;;4.38;1.15;;;;;;;18.55;42.65;101302.69;5008736;28;20386;-69
2022/05/30 12:05:13;;;;;;;2.00;0.90;;;;;;;18.72;43.91;101301.91;5008705;28;20047;-68
2022/05/30 12:08:06;;;;;;;4.53;1.00;;;;;;;18.86;44.87;101301.41;4949334;28;20500;-68
2022/05/30 12:10:43;;;;;;;4.30;1.15;;;;;;;18.99;42.67;101306.56;4990915;28;20699;-70
2022/05/30 12:13:32;;;;;;;3.08;0.90;;;;;;;19.06;43.82;101310.41;5005462;28;20038;-68
2022/05/30 12:16:12;;;;;;;2.08;1.05;;;;;;;19.02;41.36;101308.97;5004326;28;20045;-68
2022/05/30 12:24:49;;;;;;;5.13;1.00;;;;;;;19.96;39.16;101300.28;5002687;28;20500;-69
2022/05/30 12:27:35;;;;;;;2.53;1.30;;;;;;;20.15;39.80;101309.38;5002900;28;20492;-69
2022/05/30 12:30:04;;;;;;;4.60;1.45;;;;;;;20.45;37.49;101311.63;4992720;28;20041;-68
2022/05/30 12:32:36;;;;;;;3.90;0.90;;;;;;;20.37;32.99;101304.16;5009027;28;20485;-68